createdAt,value
2022-08-19T00:01:09.730Z,11.15
2022-08-19T00:03:40.010Z,10.90
2022-08-19T00:06:10.948Z,10.75
2022-08-19T00:08:42.940Z,10.18
2022-08-19T00:11:18.727Z,10.30
2022-08-19T00:14:00.030Z,10.40
2022-08-19T00:16:30.720Z,10.27
2022-08-19T00:19:01.071Z,10.73
2022-08-19T00:21:32.404Z,10.68
2022-08-19T00:24:02.672Z,11.15
2022-08-19T00:26:33.109Z,11.02
2022-08-19T00:29:07.061Z,10.38
2022-08-19T00:31:37.379Z,11.60
2022-08-19T00:34:07.876Z,10.40
2022-08-19T00:36:38.710Z,9.98
2022-08-19T00:39:09.707Z,10.35
2022-08-19T00:41:40.210Z,10.30
2022-08-19T00:44:17.301Z,10.32
2022-08-19T00:46:55.204Z,10.40
2022-08-19T00:49:36.589Z,10.68
2022-08-19T00:52:14.213Z,10.80
2022-08-19T00:54:49.657Z,10.18
2022-08-19T00:57:28.527Z,10.02
2022-08-19T01:00:04.189Z,10.00
2022-08-19T01:02:36.562Z,10.82
2022-08-19T01:05:12.800Z,10.30
2022-08-19T01:07:44.713Z,11.07
2022-08-19T01:10:19.497Z,11.75
2022-08-19T01:12:50.787Z,11.68
2022-08-19T01:15:31.130Z,12.35
2022-08-19T01:18:02.535Z,11.38
2022-08-19T01:20:34.788Z,11.70
2022-08-19T01:23:08.324Z,12.45
2022-08-19T01:25:50.983Z,12.63
2022-08-19T01:28:39.686Z,11.65
2022-08-19T01:31:27.293Z,11.77
2022-08-19T01:34:00.949Z,15.07
2022-08-19T01:36:35.093Z,999.90
2022-08-19T01:39:11.845Z,999.90
2022-08-19T01:41:42.260Z,14.27
2022-08-19T01:44:19.047Z,999.90
2022-08-19T01:46:52.073Z,999.90
2022-08-19T01:49:26.260Z,999.90
2022-08-19T01:51:58.632Z,999.90
2022-08-19T01:54:31.758Z,999.90
2022-08-19T01:57:06.730Z,999.90
2022-08-19T01:59:37.909Z,999.90
2022-08-19T02:02:10.660Z,999.90
2022-08-19T02:04:42.303Z,999.90
2022-08-19T02:07:12.894Z,999.90
2022-08-19T02:09:45.888Z,999.90
2022-08-19T02:12:17.413Z,999.90
2022-08-19T02:14:47.978Z,999.90
2022-08-19T02:17:19.408Z,999.90
2022-08-19T02:19:50.125Z,999.90
2022-08-19T02:22:20.503Z,13.73
2022-08-19T02:24:53.421Z,99.25
2022-08-19T02:27:23.868Z,63.17
2022-08-19T02:29:55.600Z,15.13
2022-08-19T02:32:25.850Z,13.70
2022-08-19T02:34:56.132Z,5.47
2022-08-19T02:37:38.825Z,73.88
2022-08-19T02:40:13.494Z,999.90
2022-08-19T02:42:44.608Z,16.52
2022-08-19T02:45:15.212Z,999.90
2022-08-19T02:47:45.793Z,999.90
2022-08-19T02:50:16.450Z,999.90
2022-08-19T02:52:46.713Z,999.90
2022-08-19T02:55:20.102Z,999.90
2022-08-19T02:57:50.660Z,169.40
2022-08-19T03:00:21.844Z,344.83
2022-08-19T03:02:52.161Z,49.63
2022-08-19T03:05:25.275Z,12.48
2022-08-19T03:08:15.982Z,12.80
2022-08-19T03:10:52.917Z,13.30
2022-08-19T03:13:24.469Z,12.32
2022-08-19T03:15:55.249Z,13.18
2022-08-19T03:18:25.814Z,13.43
2022-08-19T03:20:58.710Z,109.10
2022-08-19T03:23:29.257Z,11.88
2022-08-19T03:26:15.725Z,12.82
2022-08-19T03:28:58.426Z,13.20
2022-08-19T03:31:43.423Z,13.43
2022-08-19T03:34:27.624Z,13.80
2022-08-19T03:37:00.264Z,15.02
2022-08-19T03:39:31.839Z,14.40
2022-08-19T03:42:38.735Z,13.40
2022-08-19T03:44:55.438Z,12.45
2022-08-19T03:47:26.717Z,14.05
2022-08-19T03:49:56.954Z,12.45
2022-08-19T03:52:27.609Z,15.02
2022-08-19T03:55:00.813Z,89.00
2022-08-19T03:57:35.262Z,13.65
2022-08-19T04:02:58.718Z,13.52
2022-08-19T04:05:33.694Z,13.98
2022-08-19T04:08:03.997Z,21.13
2022-08-19T04:10:34.269Z,21.95
2022-08-19T04:13:08.725Z,14.57
2022-08-19T04:18:14.577Z,12.95
2022-08-19T04:20:47.309Z,28.77
2022-08-19T04:23:19.760Z,16.85
2022-08-19T04:25:50.070Z,12.90
2022-08-19T04:28:22.845Z,21.75
2022-08-19T04:30:55.747Z,13.05
2022-08-19T04:33:29.731Z,999.90
2022-08-19T04:36:01.171Z,999.90
2022-08-19T04:38:31.473Z,999.90
2022-08-19T04:41:14.308Z,999.90
2022-08-19T04:43:51.556Z,16.40
2022-08-19T04:46:39.417Z,12.60
2022-08-19T04:49:13.655Z,11.65
2022-08-19T04:51:46.370Z,12.55
2022-08-19T04:54:33.753Z,11.35
2022-08-19T04:57:09.748Z,12.23
2022-08-19T04:59:43.419Z,14.93
2022-08-19T05:02:13.734Z,11.47
2022-08-19T05:04:44.033Z,11.60
2022-08-19T05:07:14.325Z,10.52
2022-08-19T05:09:58.025Z,11.35
2022-08-19T05:15:03.632Z,11.65
2022-08-19T05:17:38.338Z,10.97
2022-08-19T05:20:24.143Z,999.90
2022-08-19T05:22:54.541Z,310.17
2022-08-19T05:25:26.884Z,12.60
2022-08-19T05:27:57.173Z,13.10
2022-08-19T05:30:46.020Z,14.38
2022-08-19T05:33:17.378Z,36.33
2022-08-19T05:35:49.730Z,313.30
2022-08-19T05:38:22.188Z,999.90
2022-08-19T05:40:52.404Z,999.90
2022-08-19T05:43:22.601Z,999.90
2022-08-19T05:45:55.456Z,999.90
2022-08-19T05:48:25.840Z,999.90
2022-08-19T05:50:56.194Z,999.90
2022-08-19T05:53:26.432Z,999.90
2022-08-19T05:55:56.758Z,999.90
2022-08-19T05:58:29.158Z,999.90
2022-08-19T06:01:05.510Z,999.90
2022-08-19T06:03:38.552Z,999.90
2022-08-19T06:06:10.016Z,999.90
2022-08-19T06:08:41.007Z,999.90
2022-08-19T06:11:21.703Z,999.90
2022-08-19T06:13:59.592Z,999.90
2022-08-19T06:16:36.313Z,999.90
2022-08-19T06:19:10.588Z,999.90
2022-08-19T06:21:43.736Z,999.90
2022-08-19T06:24:19.891Z,999.90
2022-08-19T06:26:55.769Z,999.90
2022-08-19T06:29:30.959Z,999.90
2022-08-19T06:32:06.769Z,999.90
2022-08-19T06:34:38.632Z,999.90
2022-08-19T06:37:08.957Z,999.90
2022-08-19T06:39:44.990Z,999.90
2022-08-19T06:42:17.434Z,999.90
2022-08-19T06:44:53.233Z,999.90
2022-08-19T06:47:28.984Z,999.90
2022-08-19T06:50:03.437Z,999.90
2022-08-19T06:55:07.995Z,999.90
2022-08-19T06:57:38.825Z,999.90
2022-08-19T07:00:13.204Z,999.90
2022-08-19T07:05:27.794Z,999.90
2022-08-19T07:08:01.587Z,999.90
2022-08-19T07:10:36.166Z,3.22
2022-08-19T07:13:07.100Z,1.20
2022-08-19T07:15:37.821Z,1.25
2022-08-19T07:18:12.717Z,1.10
2022-08-19T07:20:44.109Z,1.10
2022-08-19T07:23:16.079Z,1.30
2022-08-19T07:25:52.721Z,1.10
2022-08-19T07:28:25.031Z,1.20
2022-08-19T07:33:33.612Z,1.10
2022-08-19T07:36:04.078Z,1.10
2022-08-19T07:38:34.526Z,1.20
2022-08-19T07:41:05.329Z,1.00
2022-08-19T07:43:38.467Z,1.20
2022-08-19T07:49:03.160Z,45.97
2022-08-19T07:51:36.959Z,7.65
2022-08-19T07:54:08.093Z,37.05
2022-08-19T07:56:38.844Z,30.95
2022-08-19T07:59:10.252Z,66.85
2022-08-19T08:01:41.857Z,125.90
2022-08-19T08:04:28.020Z,999.90
2022-08-19T08:07:11.285Z,9.90
2022-08-19T08:09:49.700Z,9.48
2022-08-19T08:12:35.144Z,6.80
2022-08-19T08:15:12.537Z,9.77
2022-08-19T08:17:49.214Z,3.20
2022-08-19T08:20:24.483Z,3.13
2022-08-19T08:23:07.332Z,10.18
2022-08-19T08:25:39.404Z,6.20
2022-08-19T08:28:11.186Z,8.05
2022-08-19T08:30:45.103Z,25.52
2022-08-19T08:35:49.869Z,999.90
2022-08-19T08:38:20.480Z,999.90
2022-08-19T08:40:55.880Z,20.27
2022-08-19T08:43:33.869Z,12.48
2022-08-19T08:46:08.314Z,11.43
2022-08-19T08:48:52.810Z,7.05
2022-08-19T08:51:35.065Z,999.90
2022-08-19T08:54:11.336Z,999.90
2022-08-19T08:56:43.715Z,999.90
2022-08-19T08:59:25.496Z,999.90
2022-08-19T09:01:56.010Z,999.90
2022-08-19T09:04:26.285Z,999.90
2022-08-19T09:07:18.451Z,999.90
2022-08-19T09:10:15.041Z,999.90
2022-08-19T09:12:58.784Z,18.43
2022-08-19T09:15:36.644Z,17.38
2022-08-19T09:18:09.303Z,19.05
2022-08-19T09:20:45.879Z,17.88
2022-08-19T09:23:19.145Z,17.38
2022-08-19T09:25:57.531Z,16.48
2022-08-19T09:28:28.994Z,18.67
2022-08-19T09:30:59.188Z,16.25
2022-08-19T09:33:30.222Z,17.58
2022-08-19T09:36:08.821Z,16.98
2022-08-19T09:38:43.656Z,17.08
2022-08-19T09:41:17.633Z,15.23
2022-08-19T09:46:22.187Z,16.30
2022-08-19T09:48:54.645Z,27.70
2022-08-19T09:51:29.405Z,16.13
2022-08-19T09:54:05.315Z,17.23
2022-08-19T09:56:36.614Z,16.40
2022-08-19T09:59:07.848Z,17.73
2022-08-19T10:01:38.048Z,17.50
2022-08-19T10:04:19.776Z,18.05
2022-08-19T10:06:53.676Z,18.67
2022-08-19T10:09:34.548Z,20.88
2022-08-19T10:12:07.149Z,25.80
2022-08-19T10:14:43.380Z,17.92
2022-08-19T10:17:19.380Z,18.35
2022-08-19T10:19:55.056Z,18.83
2022-08-19T10:22:28.142Z,19.45
2022-08-19T10:25:00.837Z,17.42
2022-08-19T10:27:32.260Z,11.88
2022-08-19T10:30:02.505Z,11.63
2022-08-19T10:32:33.025Z,12.80
2022-08-19T10:35:08.999Z,10.65
2022-08-19T10:37:46.308Z,9.00
2022-08-19T10:40:31.275Z,9.80
2022-08-19T10:43:01.476Z,9.35
2022-08-19T10:45:31.877Z,10.18
2022-08-19T10:48:03.191Z,9.70
2022-08-19T10:50:46.655Z,8.45
2022-08-19T10:53:17.779Z,9.93
2022-08-19T10:56:03.178Z,9.82
2022-08-19T10:58:33.436Z,9.60
2022-08-19T11:01:03.793Z,37.03
2022-08-19T11:03:34.248Z,13.57
2022-08-19T11:06:05.297Z,13.38
2022-08-19T11:08:36.321Z,12.73
2022-08-19T11:11:11.733Z,13.23
2022-08-19T11:13:45.612Z,8.70
2022-08-19T11:16:20.459Z,8.07
2022-08-19T11:18:55.974Z,11.98
2022-08-19T11:21:32.770Z,11.95
2022-08-19T11:24:07.796Z,10.85
2022-08-19T11:26:42.951Z,10.70
2022-08-19T11:29:15.681Z,10.27
2022-08-19T11:31:50.572Z,8.77
2022-08-19T11:34:26.444Z,9.98
2022-08-19T11:37:00.685Z,11.07
2022-08-19T11:39:33.761Z,10.82
2022-08-19T11:42:28.781Z,577.55
2022-08-19T11:44:59.343Z,55.70
2022-08-19T11:47:31.664Z,16.67
2022-08-19T11:50:02.087Z,999.90
2022-08-19T11:52:32.438Z,999.90
2022-08-19T11:55:03.030Z,999.90
2022-08-19T11:57:35.951Z,999.90
2022-08-19T12:00:10.129Z,999.90
2022-08-19T12:02:40.784Z,999.90
2022-08-19T12:05:13.159Z,34.85
2022-08-19T12:07:44.886Z,7.70
2022-08-19T12:10:18.469Z,8.05
2022-08-19T12:12:54.647Z,6.63
2022-08-19T12:15:36.890Z,5.68
2022-08-19T12:18:08.889Z,7.00
2022-08-19T12:20:40.767Z,6.20
2022-08-19T12:23:12.737Z,6.88
2022-08-19T12:25:52.764Z,6.28
2022-08-19T12:28:29.941Z,6.55
2022-08-19T12:31:00.957Z,6.05
2022-08-19T12:33:33.210Z,5.55
2022-08-19T12:36:07.826Z,6.10
2022-08-19T12:38:38.826Z,7.35
2022-08-19T12:41:13.305Z,8.10
2022-08-19T12:43:46.240Z,6.78
2022-08-19T12:46:17.335Z,6.78
2022-08-19T12:48:51.121Z,7.65
2022-08-19T12:51:26.374Z,7.45
2022-08-19T12:53:56.666Z,5.28
2022-08-19T12:56:27.119Z,7.03
2022-08-19T12:59:01.517Z,7.50
2022-08-19T13:01:33.808Z,7.40
2022-08-19T13:04:04.648Z,7.70
2022-08-19T13:06:34.786Z,8.35
2022-08-19T13:09:05.155Z,8.13
2022-08-19T13:11:36.102Z,7.10
2022-08-19T13:14:09.441Z,8.15
2022-08-19T13:16:41.625Z,7.53
2022-08-19T13:19:13.136Z,6.80
2022-08-19T13:21:43.411Z,7.78
2022-08-19T13:24:13.612Z,8.40
2022-08-19T13:26:43.947Z,7.10
2022-08-19T13:29:29.386Z,7.93
2022-08-19T13:32:13.915Z,7.30
2022-08-19T13:34:49.601Z,6.45
2022-08-19T13:37:39.753Z,797.90
2022-08-19T13:40:15.562Z,5.88
2022-08-19T13:42:48.698Z,4.85
2022-08-19T13:45:24.166Z,5.35
2022-08-19T13:47:59.774Z,6.32
2022-08-19T13:50:34.771Z,6.18
2022-08-19T13:53:06.213Z,6.95
2022-08-19T13:55:37.205Z,7.22
2022-08-19T13:58:07.484Z,7.20
2022-08-19T14:00:44.365Z,7.28
2022-08-19T14:03:15.573Z,7.10
2022-08-19T14:05:47.213Z,6.80
2022-08-19T14:08:17.633Z,7.63
2022-08-19T14:10:49.509Z,6.65
2022-08-19T14:13:23.747Z,4.88
2022-08-19T14:15:57.146Z,2.40
2022-08-19T14:18:28.700Z,3.33
2022-08-19T14:21:01.071Z,5.35
2022-08-19T14:23:31.438Z,4.35
2022-08-19T14:26:09.334Z,6.00
2022-08-19T14:28:39.846Z,5.82
2022-08-19T14:31:13.451Z,4.65
2022-08-19T14:33:44.317Z,5.20
2022-08-19T14:36:14.641Z,6.35
2022-08-19T14:38:45.169Z,7.70
2022-08-19T14:41:20.474Z,7.70
2022-08-19T14:43:54.737Z,8.98
2022-08-19T14:49:00.454Z,56.50
2022-08-19T14:51:30.860Z,7.28
2022-08-19T14:54:01.342Z,11.05
2022-08-19T14:56:34.043Z,7.50
2022-08-19T14:59:04.310Z,8.63
2022-08-19T15:01:37.410Z,43.10
2022-08-19T15:04:08.010Z,26.30
2022-08-19T15:06:38.564Z,5.85
2022-08-19T15:09:09.506Z,4.88
2022-08-19T15:11:40.221Z,4.88
2022-08-19T15:14:11.188Z,4.78
2022-08-19T15:16:44.089Z,5.80
2022-08-19T15:19:14.381Z,6.18
2022-08-19T15:21:44.659Z,5.95
2022-08-19T15:24:15.006Z,5.47
2022-08-19T15:26:45.238Z,6.20
2022-08-19T15:29:17.418Z,4.65
2022-08-19T15:31:51.801Z,6.80
2022-08-19T15:34:25.562Z,12.98
2022-08-19T15:36:56.312Z,4.90
2022-08-19T15:39:26.472Z,4.43
2022-08-19T15:41:56.701Z,6.20
2022-08-19T15:44:27.185Z,5.00
2022-08-19T15:47:00.069Z,5.43
2022-08-19T15:49:30.318Z,4.90
2022-08-19T15:52:01.697Z,4.68
2022-08-19T15:54:31.908Z,5.47
2022-08-19T15:57:16.941Z,4.32
2022-08-19T16:00:01.540Z,5.80
2022-08-19T16:03:04.808Z,6.10
2022-08-19T16:05:47.524Z,24.90
2022-08-19T16:08:17.764Z,5.05
2022-08-19T16:10:48.042Z,4.20
2022-08-19T16:13:18.406Z,5.45
2022-08-19T16:15:48.696Z,4.97
2022-08-19T16:18:21.502Z,4.75
2022-08-19T16:20:51.779Z,4.45
2022-08-19T16:23:22.586Z,4.60
2022-08-19T16:25:53.057Z,4.93
2022-08-19T16:28:23.702Z,4.75
2022-08-19T16:30:54.512Z,4.35
2022-08-19T16:33:27.220Z,5.30
2022-08-19T16:36:06.837Z,5.43
2022-08-19T16:38:38.041Z,4.95
2022-08-19T16:41:09.571Z,5.80
2022-08-19T16:43:40.184Z,4.70
2022-08-19T16:46:11.766Z,4.95
2022-08-19T16:48:48.764Z,6.15
2022-08-19T16:51:19.584Z,7.22
2022-08-19T16:53:51.841Z,5.63
2022-08-19T16:56:22.916Z,5.97
2022-08-19T16:58:54.003Z,6.15
2022-08-19T17:01:24.485Z,5.53
2022-08-19T17:03:57.673Z,6.13
2022-08-19T17:06:31.028Z,6.88
2022-08-19T17:09:04.383Z,5.78
2022-08-19T17:11:35.789Z,5.82
2022-08-19T17:14:08.611Z,4.85
2022-08-19T17:16:39.991Z,4.95
2022-08-19T17:19:12.816Z,5.55
2022-08-19T17:21:43.397Z,5.90
2022-08-19T17:24:13.794Z,5.05
2022-08-19T17:26:44.248Z,5.07
2022-08-19T17:29:14.605Z,5.82
2022-08-19T17:31:45.104Z,4.75
2022-08-19T17:34:18.131Z,3.90
2022-08-19T17:36:48.329Z,4.60
2022-08-19T17:39:18.664Z,5.15
2022-08-19T17:41:48.974Z,4.55
2022-08-19T17:44:19.439Z,4.57
2022-08-19T17:46:50.061Z,4.28
2022-08-19T17:49:22.886Z,3.95
2022-08-19T17:51:53.593Z,4.18
2022-08-19T17:54:23.879Z,3.78
2022-08-19T17:57:03.655Z,5.28
2022-08-19T17:59:36.115Z,5.68
2022-08-19T18:02:09.987Z,6.63
2022-08-19T18:04:46.857Z,6.60
2022-08-19T18:07:21.770Z,6.47
2022-08-19T18:09:55.001Z,6.93
2022-08-19T18:12:27.810Z,10.73
2022-08-19T18:14:58.095Z,9.68
2022-08-19T18:17:28.448Z,7.18
2022-08-19T18:20:01.317Z,5.05
2022-08-19T18:22:37.114Z,6.35
2022-08-19T18:25:13.210Z,4.30
2022-08-19T18:27:44.017Z,4.93
2022-08-19T18:30:15.781Z,4.57
2022-08-19T18:32:49.672Z,13.88
2022-08-19T18:35:29.665Z,10.15
2022-08-19T18:38:23.085Z,9.55
2022-08-19T18:41:05.959Z,5.97
2022-08-19T18:43:48.621Z,10.25
2022-08-19T18:46:31.391Z,10.82
2022-08-19T18:49:08.207Z,11.38
2022-08-19T18:51:41.017Z,10.95
2022-08-19T18:54:12.685Z,9.93
2022-08-19T18:56:44.880Z,11.00
2022-08-19T18:59:20.168Z,10.80
2022-08-19T19:01:52.392Z,11.63
2022-08-19T19:04:27.347Z,9.60
2022-08-19T19:07:00.342Z,10.80
2022-08-19T19:09:31.529Z,11.18
2022-08-19T19:12:05.585Z,10.73
2022-08-19T19:14:49.060Z,9.90
2022-08-19T19:17:26.071Z,10.00
2022-08-19T19:19:56.480Z,8.10
2022-08-19T19:22:29.385Z,8.88
2022-08-19T19:24:59.849Z,9.70
2022-08-19T19:27:30.096Z,8.50
2022-08-19T19:30:00.437Z,8.00
2022-08-19T19:32:39.281Z,8.55
2022-08-19T19:35:12.696Z,8.65
2022-08-19T19:37:52.529Z,9.02
2022-08-19T19:40:23.378Z,8.55
2022-08-19T19:42:54.637Z,8.52
2022-08-19T19:45:25.609Z,7.25
2022-08-19T19:47:57.739Z,6.85
2022-08-19T19:50:31.391Z,8.07
2022-08-19T19:53:04.238Z,7.05
2022-08-19T19:55:34.581Z,6.40
2022-08-19T19:58:07.160Z,6.70
2022-08-19T20:00:39.704Z,6.18
2022-08-19T20:03:10.610Z,6.60
2022-08-19T20:05:40.848Z,6.28
2022-08-19T20:08:26.547Z,6.63
2022-08-19T20:10:57.991Z,6.75
2022-08-19T20:13:28.521Z,6.18
2022-08-19T20:15:58.848Z,7.03
2022-08-19T20:18:29.476Z,7.18
2022-08-19T20:20:59.792Z,6.85
2022-08-19T20:23:32.685Z,6.65
2022-08-19T20:26:03.109Z,6.32
2022-08-19T20:28:34.018Z,6.93
2022-08-19T20:31:04.524Z,6.88
2022-08-19T20:33:35.569Z,6.97
2022-08-19T20:36:07.026Z,7.05
2022-08-19T20:38:40.384Z,7.43
2022-08-19T20:41:12.653Z,7.63
2022-08-19T20:43:42.877Z,7.18
2022-08-19T20:46:14.346Z,7.38
2022-08-19T20:48:45.249Z,6.97
2022-08-19T20:51:15.717Z,7.53
2022-08-19T20:53:48.579Z,6.85
2022-08-19T20:56:19.177Z,7.40
2022-08-19T20:58:54.420Z,7.40
2022-08-19T21:01:27.259Z,7.18
2022-08-19T21:03:57.456Z,7.38
2022-08-19T21:06:27.748Z,7.20
2022-08-19T21:09:00.628Z,7.32
2022-08-19T21:11:32.446Z,7.07
2022-08-19T21:14:02.929Z,7.13
2022-08-19T21:16:34.083Z,7.32
2022-08-19T21:19:05.016Z,6.85
2022-08-19T21:21:35.865Z,7.15
2022-08-19T21:24:09.384Z,7.47
2022-08-19T21:26:39.628Z,7.17
2022-08-19T21:29:10.168Z,7.00
2022-08-19T21:31:40.456Z,8.20
2022-08-19T21:34:10.662Z,8.15
2022-08-19T21:36:40.840Z,7.90
2022-08-19T21:39:13.703Z,8.95
2022-08-19T21:41:43.993Z,8.95
2022-08-19T21:44:14.320Z,8.77
2022-08-19T21:46:44.623Z,8.20
2022-08-19T21:49:21.112Z,8.13
2022-08-19T21:51:51.625Z,8.73
2022-08-19T21:54:24.351Z,9.27
2022-08-19T21:56:54.821Z,7.93
2022-08-19T21:59:25.026Z,8.48
2022-08-19T22:02:10.465Z,9.23
2022-08-19T22:04:46.068Z,8.20
2022-08-19T22:07:16.905Z,8.05
2022-08-19T22:09:52.773Z,8.43
2022-08-19T22:12:25.993Z,9.25
2022-08-19T22:14:57.189Z,9.07
2022-08-19T22:17:28.392Z,8.73
2022-08-19T22:19:59.921Z,8.52
2022-08-19T22:22:33.364Z,9.52
2022-08-19T22:25:11.967Z,9.02
2022-08-19T22:27:42.873Z,8.77
2022-08-19T22:30:18.244Z,8.93
2022-08-19T22:32:56.002Z,9.85
2022-08-19T22:35:29.809Z,10.15
2022-08-19T22:38:00.385Z,9.80
2022-08-19T22:40:34.382Z,10.10
2022-08-19T22:43:08.436Z,9.80
2022-08-19T22:45:39.779Z,8.63
2022-08-19T22:48:12.384Z,9.68
2022-08-19T22:51:05.995Z,8.43
2022-08-19T22:53:34.835Z,9.23
2022-08-19T22:56:13.160Z,9.52
2022-08-19T22:58:45.991Z,8.43
2022-08-19T23:01:29.626Z,9.35
2022-08-19T23:04:04.046Z,8.88
2022-08-19T23:06:37.228Z,9.00
2022-08-19T23:09:16.564Z,9.48
2022-08-19T23:11:50.729Z,9.55
2022-08-19T23:14:21.064Z,8.95
2022-08-19T23:16:52.334Z,8.68
2022-08-19T23:19:24.768Z,9.52
2022-08-19T23:21:55.508Z,8.88
2022-08-19T23:24:25.723Z,9.93
2022-08-19T23:27:11.074Z,9.98
2022-08-19T23:29:53.753Z,9.00
2022-08-19T23:32:25.643Z,10.50
2022-08-19T23:34:59.562Z,9.50
2022-08-19T23:37:30.214Z,9.85
2022-08-19T23:40:00.502Z,9.95
2022-08-19T23:42:33.433Z,9.95
2022-08-19T23:45:07.416Z,10.77
2022-08-19T23:47:40.686Z,10.07
2022-08-19T23:50:13.689Z,9.40
2022-08-19T23:52:50.688Z,10.98
2022-08-19T23:55:23.969Z,10.32
2022-08-19T23:57:57.582Z,10.90
